Time;durP1;ratioP1;P1;durP2;ratioP2;P2;SDS_P1;SDS_P2;PMS_P1;PMS_P2;Temp;Humidity;BMP_temperature;BMP_pressure;BME280_temperature;BME280_humidity;BME280_pressure;Samples;Min_cycle;Max_cycle;Signal;HPM_P1;HPM_P2
2022/10/13 00:00:46;;;;;;;11.15;10.02;;;;;;;13.90;85.91;99210.41;5020104;28;102866;-67
2022/10/13 00:03:15;;;;;;;15.20;12.98;;;;;;;13.76;85.00;99210.63;5017560;27;103850;-68
2022/10/13 00:05:45;;;;;;;13.65;12.00;;;;;;;13.68;86.29;99212.16;5022979;28;104039;-67
2022/10/13 00:08:17;;;;;;;16.73;14.40;;;;;;;12.87;90.13;99222.72;5021846;28;103636;-67
2022/10/13 00:10:46;;;;;;;16.48;13.30;;;;;;;13.02;91.05;99221.59;5020591;28;102974;-67
2022/10/13 00:13:15;;;;;;;19.57;13.60;;;;;;;13.07;90.52;99223.88;5019055;28;103877;-67
2022/10/13 00:15:46;;;;;;;13.07;11.50;;;;;;;13.22;90.94;99228.91;5022722;27;104161;-67
2022/10/13 00:18:14;;;;;;;15.25;13.25;;;;;;;12.54;92.98;99231.31;5014443;28;105088;-67
2022/10/13 00:20:44;;;;;;;11.90;10.68;;;;;;;13.21;91.11;99221.94;5017054;27;102699;-68
2022/10/13 00:23:12;;;;;;;12.15;10.48;;;;;;;13.35;89.42;99223.56;5016049;27;102879;-68
2022/10/13 00:25:42;;;;;;;12.73;10.20;;;;;;;13.46;88.72;99223.59;5010237;27;103507;-66
2022/10/13 00:28:10;;;;;;;15.55;12.27;;;;;;;12.92;89.17;99231.16;5010940;27;104228;-67
2022/10/13 00:30:39;;;;;;;17.55;13.63;;;;;;;11.83;97.36;99233.72;5009063;27;102848;-67
2022/10/13 00:33:09;;;;;;;14.48;11.65;;;;;;;12.38;97.68;99235.19;5005636;27;102860;-67
2022/10/13 00:35:41;;;;;;;17.02;11.57;;;;;;;12.62;94.76;99233.41;5009702;27;103322;-67
2022/10/13 00:38:15;;;;;;;9.52;8.50;;;;;;;13.48;91.19;99220.81;5009560;27;103187;-67
2022/10/13 00:40:45;;;;;;;9.40;8.40;;;;;;;13.60;88.92;99227.84;5007562;27;102827;-67
2022/10/13 00:43:21;;;;;;;9.73;8.82;;;;;;;13.69;86.64;99220.03;5010651;27;103799;-67
2022/10/13 00:45:49;;;;;;;10.50;9.27;;;;;;;13.73;86.02;99221.47;5009002;27;103318;-68
2022/10/13 00:48:22;;;;;;;12.67;10.97;;;;;;;13.31;86.65;99216.78;5011536;27;103529;-67
2022/10/13 00:50:51;;;;;;;12.65;11.23;;;;;;;12.64;90.54;99215.56;5012440;27;103931;-68
2022/10/13 00:53:23;;;;;;;15.77;12.48;;;;;;;11.65;96.92;99225.22;5005701;27;104097;-67
2022/10/13 00:55:52;;;;;;;15.50;13.25;;;;;;;11.73;100.00;99216.81;5009679;27;103813;-67
2022/10/13 00:58:25;;;;;;;13.65;11.63;;;;;;;12.36;96.70;99221.16;5010248;27;103270;-67
2022/10/13 01:00:53;;;;;;;11.55;10.32;;;;;;;12.73;94.39;99217.56;5005094;27;102675;-67
2022/10/13 01:03:23;;;;;;;10.30;8.60;;;;;;;13.11;91.86;99209.47;5008987;27;103220;-67
2022/10/13 01:05:53;;;;;;;10.27;9.10;;;;;;;13.12;91.45;99209.34;5009751;27;104494;-67
2022/10/13 01:08:25;;;;;;;10.40;9.20;;;;;;;13.16;90.81;99212.63;5010431;27;104243;-68
2022/10/13 01:11:09;;;;;;;13.55;10.48;;;;;;;13.13;89.01;99212.88;5006746;27;102633;-68
2022/10/13 01:13:42;;;;;;;14.65;12.43;;;;;;;12.64;92.01;99215.56;5021829;27;104434;-67
2022/10/13 01:16:15;;;;;;;13.45;11.35;;;;;;;12.65;93.12;99204.03;5007823;27;103416;-67
2022/10/13 01:18:52;;;;;;;14.70;12.50;;;;;;;12.69;93.13;99213.44;5009849;27;103907;-67
2022/10/13 01:21:28;;;;;;;14.25;12.75;;;;;;;12.84;93.86;99214.13;5007989;27;102954;-67
2022/10/13 01:24:25;;;;;;;11.73;10.23;;;;;;;13.25;92.46;99204.81;5012172;27;104185;-67
2022/10/13 01:27:15;;;;;;;10.75;9.40;;;;;;;13.52;90.64;99206.34;5050085;27;104799;-68
2022/10/13 01:30:05;;;;;;;14.43;12.05;;;;;;;13.48;90.87;99207.53;5021344;27;103178;-68
2022/10/13 01:33:01;;;;;;;11.00;9.87;;;;;;;13.56;90.57;99215.78;5018636;28;102698;-68
2022/10/13 01:35:39;;;;;;;9.88;8.88;;;;;;;13.70;89.78;99204.94;5022769;28;105034;-67
2022/10/13 01:38:15;;;;;;;14.27;10.52;;;;;;;13.76;89.30;99201.81;5020894;27;103678;-68
2022/10/13 01:40:48;;;;;;;12.83;10.27;;;;;;;13.81;89.25;99202.31;5009441;27;103428;-67
2022/10/13 01:43:23;;;;;;;11.10;10.00;;;;;;;13.85;89.00;99190.47;5008352;27;103065;-68
2022/10/13 01:45:58;;;;;;;12.90;10.80;;;;;;;13.85;88.60;99190.47;5007121;27;102830;-67
2022/10/13 01:48:27;;;;;;;10.13;9.13;;;;;;;13.88;88.90;99190.25;5036627;27;104475;-67
2022/10/13 01:50:58;;;;;;;12.52;10.88;;;;;;;13.83;88.63;99184.44;5009182;27;103225;-67
2022/10/13 01:53:27;;;;;;;11.98;10.73;;;;;;;13.73;89.36;99186.09;5012246;27;102717;-67
2022/10/13 01:55:57;;;;;;;14.77;12.55;;;;;;;13.72;88.71;99182.63;5007264;27;104203;-67
2022/10/13 01:58:28;;;;;;;17.63;14.63;;;;;;;13.49;89.32;99186.19;5009037;27;103394;-67
2022/10/13 02:01:09;;;;;;;17.55;13.50;;;;;;;13.40;91.76;99183.38;5003242;27;104024;-67
2022/10/13 02:03:52;;;;;;;18.98;15.50;;;;;;;13.19;91.90;99180.56;5006120;27;102710;-67
2022/10/13 02:06:24;;;;;;;19.33;15.80;;;;;;;13.25;91.38;99175.63;5008396;27;103462;-67
2022/10/13 02:09:01;;;;;;;21.00;15.95;;;;;;;13.03;93.16;99177.31;5006230;27;104497;-67
2022/10/13 02:11:29;;;;;;;21.02;15.90;;;;;;;12.96;94.81;99182.25;5008820;27;103252;-67
2022/10/13 02:14:01;;;;;;;14.43;12.70;;;;;;;13.21;94.15;99178.63;5009347;27;102996;-67
2022/10/13 02:16:34;;;;;;;12.27;10.93;;;;;;;13.44;92.11;99185.72;5022805;27;104020;-67
2022/10/13 02:19:04;;;;;;;15.40;13.35;;;;;;;13.45;90.29;99175.91;5007905;27;102856;-67
2022/10/13 02:21:34;;;;;;;14.20;12.50;;;;;;;13.43;90.37;99177.84;5006392;27;104492;-67
2022/10/13 02:24:02;;;;;;;17.65;14.40;;;;;;;13.38;89.84;99180.00;5008112;27;102755;-67
2022/10/13 02:26:32;;;;;;;13.73;11.85;;;;;;;13.18;90.04;99189.47;5006782;27;103822;-67
2022/10/13 02:29:10;;;;;;;14.32;12.77;;;;;;;13.22;89.75;99191.78;5006287;27;104497;-67
2022/10/13 02:31:40;;;;;;;18.48;15.15;;;;;;;13.59;87.01;99189.81;5009215;27;103257;-67
2022/10/13 02:34:08;;;;;;;17.83;14.73;;;;;;;13.62;87.05;99186.94;5008430;27;102724;-67
2022/10/13 02:36:37;;;;;;;20.88;15.43;;;;;;;13.53;87.35;99190.28;5006757;27;103736;-67
2022/10/13 02:39:06;;;;;;;17.13;14.77;;;;;;;13.51;88.65;99191.38;5009813;27;104436;-67
2022/10/13 02:41:36;;;;;;;17.07;14.67;;;;;;;13.63;88.14;99186.00;5003838;27;103641;-67
2022/10/13 02:44:04;;;;;;;16.73;14.75;;;;;;;13.67;88.46;99182.13;5004382;27;102661;-68
2022/10/13 02:46:41;;;;;;;17.08;13.23;;;;;;;13.86;87.97;99187.72;5007771;27;102802;-68
2022/10/13 02:49:09;;;;;;;14.00;12.30;;;;;;;13.90;88.39;99185.63;5007960;27;103803;-67
2022/10/13 02:51:37;;;;;;;17.27;14.00;;;;;;;14.01;87.82;99179.50;5012355;27;103283;-68
2022/10/13 02:54:07;;;;;;;18.17;15.88;;;;;;;13.83;89.05;99187.09;5004957;27;102627;-68
2022/10/13 02:56:35;;;;;;;22.73;16.25;;;;;;;13.75;89.90;99174.41;4984649;27;104230;-67
2022/10/13 03:00:49;;;;;;;15.18;13.57;;;;;;;13.88;90.23;99180.47;5105789;27;103318;-69
2022/10/13 03:03:17;;;;;;;14.37;12.60;;;;;;;14.05;88.93;99176.47;5086896;27;104820;-69
2022/10/13 03:05:47;;;;;;;16.15;14.40;;;;;;;14.01;87.69;99179.50;5084526;27;104816;-69
2022/10/13 03:08:16;;;;;;;16.92;14.30;;;;;;;13.97;87.01;99178.91;5102833;27;103188;-68
2022/10/13 03:10:45;;;;;;;18.13;14.25;;;;;;;14.10;87.46;99182.25;5102002;27;103437;-68
2022/10/13 03:13:12;;;;;;;15.67;13.20;;;;;;;14.13;86.73;99170.56;5033752;27;104801;-69
2022/10/13 03:15:42;;;;;;;15.93;14.23;;;;;;;14.13;86.79;99174.06;5018282;27;103289;-69
2022/10/13 03:18:11;;;;;;;13.32;11.63;;;;;;;14.26;86.40;99169.44;5023810;27;103249;-69
2022/10/13 03:20:39;;;;;;;14.32;12.20;;;;;;;14.32;85.89;99168.13;5022364;27;102755;-69
2022/10/13 03:23:07;;;;;;;16.05;12.60;;;;;;;14.38;85.51;99176.47;5019325;27;102948;-69
2022/10/13 03:25:36;;;;;;;12.70;11.40;;;;;;;14.45;85.49;99164.41;5021816;27;103284;-69
2022/10/13 03:28:03;;;;;;;13.50;12.20;;;;;;;14.49;85.03;99163.16;5023660;27;103338;-69
2022/10/13 03:30:31;;;;;;;13.75;11.60;;;;;;;14.55;85.31;99159.16;5024692;27;102773;-69
2022/10/13 03:32:59;;;;;;;13.30;11.95;;;;;;;14.58;84.97;99155.41;5025606;27;102707;-69
2022/10/13 03:35:28;;;;;;;12.80;11.17;;;;;;;14.63;84.69;99158.53;4999463;27;104423;-69
2022/10/13 03:37:58;;;;;;;13.18;11.88;;;;;;;14.66;84.54;99156.47;5024491;27;103185;-69
2022/10/13 03:40:30;;;;;;;15.82;12.90;;;;;;;14.68;84.27;99153.72;5024237;27;102802;-69
2022/10/13 03:42:58;;;;;;;21.17;15.63;;;;;;;14.44;84.30;99146.75;5022904;27;103100;-69
2022/10/13 03:45:30;;;;;;;17.45;14.65;;;;;;;14.44;85.26;99140.59;5019923;27;103841;-69
2022/10/13 03:47:58;;;;;;;13.63;12.25;;;;;;;14.50;85.54;99137.44;5018120;27;103132;-69
2022/10/13 03:50:25;;;;;;;13.23;11.75;;;;;;;14.57;85.07;99143.09;5012287;27;104147;-70
2022/10/13 03:52:55;;;;;;;12.95;11.65;;;;;;;14.60;84.96;99146.34;5021721;27;104337;-68
2022/10/13 03:55:23;;;;;;;13.40;12.00;;;;;;;14.59;84.81;99143.81;4997934;27;103369;-69
2022/10/13 03:57:51;;;;;;;17.97;14.20;;;;;;;14.59;84.92;99149.13;5033600;27;104589;-69
2022/10/13 04:00:21;;;;;;;18.73;15.30;;;;;;;14.61;85.23;99142.72;5042721;27;103308;-69
2022/10/13 04:02:49;;;;;;;14.07;12.48;;;;;;;14.71;85.17;99148.97;5044141;27;103794;-68
2022/10/13 04:05:17;;;;;;;16.23;13.77;;;;;;;14.74;85.18;99153.19;5043898;27;104134;-69
2022/10/13 04:07:45;;;;;;;20.93;16.17;;;;;;;14.51;86.68;99147.94;5045382;27;103342;-69
2022/10/13 04:10:19;;;;;;;19.02;14.93;;;;;;;14.76;86.19;99151.25;5041453;27;102969;-68
2022/10/13 04:12:49;;;;;;;14.25;12.48;;;;;;;14.95;85.05;99146.09;5031004;27;104439;-70
2022/10/13 04:15:17;;;;;;;15.82;14.13;;;;;;;14.89;85.44;99149.25;5014562;27;104897;-68
2022/10/13 04:17:44;;;;;;;14.88;13.27;;;;;;;14.87;86.04;99153.88;5019036;27;103269;-68
2022/10/13 04:20:14;;;;;;;17.55;14.88;;;;;;;14.96;85.19;99147.81;5028088;27;102887;-68
2022/10/13 04:22:42;;;;;;;17.73;15.10;;;;;;;14.86;85.43;99138.88;5019892;27;104577;-68
2022/10/13 04:25:10;;;;;;;17.58;15.77;;;;;;;14.89;84.63;99146.59;5035535;27;103350;-69
2022/10/13 04:27:39;;;;;;;14.82;12.88;;;;;;;15.01;84.74;99138.47;5033438;27;103323;-68
2022/10/13 04:30:08;;;;;;;18.00;15.07;;;;;;;14.85;84.12;99145.19;5026518;27;103035;-68
2022/10/13 04:32:40;;;;;;;15.80;14.10;;;;;;;14.81;85.27;99146.41;5030508;27;103985;-68
2022/10/13 04:35:11;;;;;;;15.35;13.75;;;;;;;14.82;84.92;99151.56;5037489;27;103674;-68
2022/10/13 04:37:38;;;;;;;14.67;13.20;;;;;;;14.87;84.71;99137.91;5021929;27;103422;-68
2022/10/13 04:40:12;;;;;;;15.02;12.98;;;;;;;14.90;84.40;99148.31;5037190;27;102686;-68
2022/10/13 04:42:41;;;;;;;13.90;12.40;;;;;;;14.91;84.17;99145.50;5036238;27;104043;-69
2022/10/13 04:45:10;;;;;;;14.13;12.40;;;;;;;14.72;84.62;99150.66;5033687;27;104056;-68
2022/10/13 04:47:40;;;;;;;13.45;11.65;;;;;;;14.86;84.05;99137.06;5034650;27;103225;-68
2022/10/13 04:50:08;;;;;;;15.80;13.60;;;;;;;14.84;83.91;99140.81;5022544;27;103334;-68
2022/10/13 04:52:37;;;;;;;17.33;13.07;;;;;;;14.86;83.48;99133.56;5035600;27;103089;-68
2022/10/13 04:55:05;;;;;;;12.40;11.20;;;;;;;14.85;84.15;99129.22;5033841;27;104168;-68
2022/10/13 04:57:33;;;;;;;13.85;12.02;;;;;;;14.69;84.68;99134.09;5021761;27;104502;-68
2022/10/13 05:00:06;;;;;;;13.70;12.30;;;;;;;14.60;84.65;99125.06;5039414;27;102768;-68
2022/10/13 05:02:35;;;;;;;12.40;11.20;;;;;;;14.70;84.66;99114.53;5035725;27;102999;-68
2022/10/13 05:05:03;;;;;;;17.67;12.33;;;;;;;14.71;83.57;99116.22;5035777;27;104355;-68
2022/10/13 05:07:32;;;;;;;11.93;10.77;;;;;;;14.70;84.08;99114.53;5024631;27;103212;-68
2022/10/13 05:10:00;;;;;;;12.13;10.93;;;;;;;14.69;83.97;99115.47;5034351;27;107149;-69
2022/10/13 05:12:28;;;;;;;13.18;11.77;;;;;;;14.57;84.16;99127.97;5033365;27;103192;-69
2022/10/13 05:14:57;;;;;;;14.43;12.30;;;;;;;14.60;83.61;99125.06;5038881;27;103412;-68
2022/10/13 05:17:29;;;;;;;11.55;10.45;;;;;;;14.62;84.13;99133.78;5034294;27;103326;-68
2022/10/13 05:20:06;;;;;;;9.93;9.02;;;;;;;14.71;83.77;99137.50;5033880;27;102990;-68
2022/10/13 05:22:34;;;;;;;12.68;11.38;;;;;;;14.65;83.41;99127.38;5035334;27;102725;-68
2022/10/13 05:25:02;;;;;;;9.68;8.70;;;;;;;14.75;83.46;99125.63;5033135;27;103283;-68
2022/10/13 05:27:31;;;;;;;10.93;9.02;;;;;;;14.78;83.25;99138.66;5041590;27;104652;-72
2022/10/13 05:30:02;;;;;;;14.52;12.55;;;;;;;14.72;82.32;99133.84;5034407;27;102726;-67
2022/10/13 05:32:31;;;;;;;17.58;14.13;;;;;;;14.16;85.84;99136.63;5037803;27;103823;-68
2022/10/13 05:34:59;;;;;;;11.80;10.60;;;;;;;14.55;85.21;99142.38;5036567;27;104605;-68
2022/10/13 05:37:27;;;;;;;14.53;12.27;;;;;;;14.66;83.80;99139.66;5033334;27;104751;-68
2022/10/13 05:39:55;;;;;;;13.70;12.30;;;;;;;14.46;85.39;99134.16;5033648;27;104575;-64
2022/10/13 05:42:22;;;;;;;10.88;9.88;;;;;;;14.68;84.74;99137.75;5024062;27;104186;-64
2022/10/13 05:44:51;;;;;;;13.15;10.82;;;;;;;14.72;84.57;99141.84;5034002;27;103819;-63
2022/10/13 05:47:18;;;;;;;10.50;9.50;;;;;;;14.76;84.51;99143.28;5035547;27;103215;-64
2022/10/13 05:49:47;;;;;;;9.97;9.07;;;;;;;14.69;84.79;99134.94;5035520;27;102991;-64
2022/10/13 05:52:17;;;;;;;16.23;12.27;;;;;;;14.67;83.55;99146.69;5037404;27;103780;-63
2022/10/13 05:54:48;;;;;;;11.10;9.90;;;;;;;14.67;84.27;99144.03;5034286;27;103306;-64
2022/10/13 05:57:21;;;;;;;17.20;13.37;;;;;;;14.36;85.38;99133.25;5034356;27;103532;-63
2022/10/13 05:59:52;;;;;;;11.32;10.23;;;;;;;14.67;85.05;99136.91;5034544;27;102881;-64
2022/10/13 06:02:24;;;;;;;9.52;8.63;;;;;;;14.83;84.37;99133.81;5021273;27;104217;-64
2022/10/13 06:04:56;;;;;;;10.20;9.20;;;;;;;14.87;84.20;99121.97;5035092;27;103427;-64
2022/10/13 06:07:24;;;;;;;14.05;12.52;;;;;;;14.68;84.42;99127.13;5034163;27;103265;-64
2022/10/13 06:09:52;;;;;;;13.50;11.88;;;;;;;14.81;84.79;99122.47;5038110;27;102647;-64
2022/10/13 06:12:20;;;;;;;13.38;9.90;;;;;;;14.91;84.98;99113.59;5038535;27;103901;-64
2022/10/13 06:14:48;;;;;;;11.02;9.02;;;;;;;14.96;84.57;99123.84;5039884;27;103787;-64
2022/10/13 06:17:16;;;;;;;12.38;11.13;;;;;;;14.92;84.69;99120.59;5040469;27;103414;-63
2022/10/13 06:19:45;;;;;;;10.53;9.53;;;;;;;15.03;85.18;99112.56;5043581;27;103217;-63
2022/10/13 06:22:14;;;;;;;16.08;12.35;;;;;;;15.01;84.75;99116.31;5038055;27;102962;-63
2022/10/13 06:24:42;;;;;;;11.18;9.70;;;;;;;15.07;85.15;99113.97;5040884;27;104025;-64
2022/10/13 06:27:12;;;;;;;15.05;12.57;;;;;;;14.65;87.74;99116.72;5036440;27;103197;-64
2022/10/13 06:29:40;;;;;;;9.90;8.82;;;;;;;15.01;87.06;99121.66;5042296;27;102709;-63
2022/10/13 06:32:07;;;;;;;10.00;9.00;;;;;;;15.16;86.57;99132.84;5047140;27;104372;-64
2022/10/13 06:34:35;;;;;;;18.02;13.27;;;;;;;14.85;86.09;99130.03;5039100;27;104056;-64
2022/10/13 06:37:03;;;;;;;14.02;10.25;;;;;;;15.13;86.04;99133.91;5039446;27;103323;-63
2022/10/13 06:39:32;;;;;;;9.93;8.93;;;;;;;15.27;85.73;99122.94;5038775;27;102590;-64
2022/10/13 06:42:03;;;;;;;12.38;11.13;;;;;;;15.42;84.66;99129.63;5041191;27;103096;-64
2022/10/13 06:44:36;;;;;;;13.10;11.53;;;;;;;15.47;84.20;99127.44;5040184;27;103857;-64
2022/10/13 06:47:04;;;;;;;13.65;11.10;;;;;;;15.74;83.44;99126.91;5038465;27;103182;-63
2022/10/13 06:49:32;;;;;;;15.05;12.77;;;;;;;15.72;82.91;99125.34;5038247;27;102643;-64
2022/10/13 06:52:00;;;;;;;12.07;10.57;;;;;;;15.75;83.08;99117.91;5039292;27;102622;-64
2022/10/13 06:54:27;;;;;;;13.13;11.38;;;;;;;15.89;82.81;99122.03;5040912;27;104101;-64
2022/10/13 06:56:56;;;;;;;14.30;12.57;;;;;;;15.86;82.54;99117.81;5025022;27;104305;-64
2022/10/13 06:59:25;;;;;;;16.77;13.55;;;;;;;15.88;82.09;99120.38;5039435;27;103167;-64
2022/10/13 07:01:53;;;;;;;13.15;11.73;;;;;;;16.01;81.96;99115.66;5023220;27;103951;-64
2022/10/13 07:04:21;;;;;;;15.17;12.80;;;;;;;15.85;81.78;99117.97;5020857;27;104532;-63
2022/10/13 07:06:49;;;;;;;16.33;12.20;;;;;;;15.79;81.89;99110.50;5041214;27;103237;-64
2022/10/13 07:09:18;;;;;;;19.13;13.23;;;;;;;15.70;81.89;99117.47;5040306;27;102673;-64
2022/10/13 07:11:47;;;;;;;17.13;13.40;;;;;;;15.77;81.69;99123.97;5036851;27;103915;-65
2022/10/13 07:14:18;;;;;;;18.42;13.95;;;;;;;15.87;82.08;99118.69;5037982;27;103321;-64
2022/10/13 07:16:48;;;;;;;17.15;14.23;;;;;;;15.65;82.46;99122.38;5042783;27;103392;-64
2022/10/13 07:19:15;;;;;;;16.70;13.60;;;;;;;15.83;82.65;99119.94;5039469;27;102684;-64
2022/10/13 07:21:43;;;;;;;17.25;13.23;;;;;;;15.84;81.41;99118.94;5036975;27;103997;-64
2022/10/13 07:24:11;;;;;;;18.85;13.50;;;;;;;15.85;81.87;99115.31;5036037;27;103978;-64
2022/10/13 07:26:39;;;;;;;12.47;10.70;;;;;;;16.12;81.63;99118.22;5040439;27;103477;-64
2022/10/13 07:29:07;;;;;;;17.45;14.02;;;;;;;15.89;82.14;99114.06;5037298;27;102839;-64
2022/10/13 07:31:36;;;;;;;15.10;12.98;;;;;;;16.10;81.71;99114.84;5039502;27;103936;-64
2022/10/13 07:34:05;;;;;;;17.15;12.88;;;;;;;16.11;81.45;99117.34;5037969;27;104041;-64
2022/10/13 07:36:34;;;;;;;16.50;13.88;;;;;;;16.10;81.45;99105.03;5040836;27;103228;-64
2022/10/13 07:39:02;;;;;;;19.23;13.90;;;;;;;15.90;82.10;99113.09;5038632;27;102639;-64
2022/10/13 07:41:31;;;;;;;18.73;15.00;;;;;;;15.54;83.75;99112.66;5023375;27;104318;-64
2022/10/13 07:43:58;;;;;;;15.38;13.25;;;;;;;15.92;83.06;99119.13;5019950;27;103942;-64
2022/10/13 07:46:26;;;;;;;17.08;13.50;;;;;;;16.34;81.50;99117.13;5041349;27;103326;-64
2022/10/13 07:48:55;;;;;;;15.10;13.55;;;;;;;16.67;79.90;99114.97;5042112;27;102651;-64
2022/10/13 07:51:23;;;;;;;17.15;13.35;;;;;;;16.70;79.84;99120.03;5043682;27;103766;-63
2022/10/13 07:53:51;;;;;;;19.65;13.93;;;;;;;16.83;78.93;99114.44;5041305;27;103328;-64
2022/10/13 07:56:19;;;;;;;15.07;13.00;;;;;;;17.04;77.65;99114.31;5042222;27;103256;-64
2022/10/13 07:58:48;;;;;;;16.02;12.98;;;;;;;17.15;77.78;99114.16;5024232;27;102765;-64
2022/10/13 08:01:18;;;;;;;15.95;11.60;;;;;;;17.26;77.58;99114.00;5042694;27;105000;-64
2022/10/13 08:03:46;;;;;;;13.63;12.27;;;;;;;17.57;76.09;99104.81;5038267;27;103898;-64
2022/10/13 08:06:19;;;;;;;16.45;13.43;;;;;;;17.59;76.28;99100.19;5041148;27;104799;-64
2022/10/13 08:08:47;;;;;;;16.92;13.07;;;;;;;17.48;75.88;99100.31;5021942;27;102640;-64
2022/10/13 08:11:16;;;;;;;14.70;11.73;;;;;;;17.74;76.15;99098.72;5041746;27;102922;-64
2022/10/13 08:13:47;;;;;;;15.57;12.13;;;;;;;17.71;76.89;99096.31;5041961;27;103996;-64
2022/10/13 08:16:20;;;;;;;14.65;11.07;;;;;;;18.05;75.71;99095.78;5044145;27;103225;-64
2022/10/13 08:18:50;;;;;;;14.70;12.15;;;;;;;17.80;75.18;99082.09;5042548;27;103132;-64
2022/10/13 08:21:21;;;;;;;16.42;12.15;;;;;;;17.35;75.66;99078.41;5041370;27;103023;-64
2022/10/13 08:24:13;;;;;;;15.57;12.27;;;;;;;17.31;76.54;99071.69;5040131;27;103959;-64
2022/10/13 08:26:42;;;;;;;15.75;12.05;;;;;;;17.61;75.63;99078.66;5041102;27;103341;-64
2022/10/13 08:29:11;;;;;;;14.50;11.98;;;;;;;17.48;75.62;99078.97;5023386;27;107983;-64
2022/10/13 08:31:55;;;;;;;14.13;10.63;;;;;;;18.04;73.92;99076.22;5021740;27;104807;-64
2022/10/13 08:34:24;;;;;;;15.40;11.53;;;;;;;18.54;72.89;99073.97;5041168;27;103589;-64
2022/10/13 08:36:55;;;;;;;15.35;10.88;;;;;;;18.87;70.79;99085.81;5041165;27;103316;-64
2022/10/13 08:39:24;;;;;;;12.95;10.95;;;;;;;18.79;71.35;99075.88;5041378;27;102642;-64
2022/10/13 08:41:53;;;;;;;13.15;11.27;;;;;;;18.78;71.12;99076.88;5027216;27;102748;-64
2022/10/13 08:44:26;;;;;;;15.65;11.45;;;;;;;18.64;70.74;99072.06;5040598;27;104054;-65
2022/10/13 08:47:24;;;;;;;14.43;11.47;;;;;;;19.05;70.70;99074.13;5040779;27;103326;-65
2022/10/13 08:49:56;;;;;;;14.00;11.07;;;;;;;19.09;68.93;99077.28;5038438;27;103304;-64
2022/10/13 08:52:43;;;;;;;16.77;11.35;;;;;;;18.75;70.49;99071.81;5041296;27;102847;-64
2022/10/13 08:55:20;;;;;;;13.75;11.02;;;;;;;19.02;70.49;99074.41;5037592;27;103936;-64
2022/10/13 08:57:47;;;;;;;12.35;10.90;;;;;;;18.91;71.22;99069.31;5040411;27;104141;-64
2022/10/13 09:00:17;;;;;;;15.32;10.63;;;;;;;18.97;70.14;99070.53;5023330;27;102780;-64
2022/10/13 09:02:49;;;;;;;15.70;10.60;;;;;;;18.90;69.66;99070.28;5044025;27;102832;-64
2022/10/13 09:05:31;;;;;;;13.40;9.60;;;;;;;19.03;69.22;99070.72;5043249;27;104021;-65
2022/10/13 09:08:11;;;;;;;12.18;9.85;;;;;;;18.82;70.51;99062.19;5048521;27;103143;-64
2022/10/13 09:10:46;;;;;;;14.20;10.40;;;;;;;19.09;69.33;99062.06;5047922;27;102825;-64
2022/10/13 09:13:18;;;;;;;11.15;9.10;;;;;;;19.46;67.40;99061.03;5042415;27;102943;-64
2022/10/13 09:15:49;;;;;;;8.70;7.90;;;;;;;19.63;68.06;99063.66;5045988;27;103404;-64
2022/10/13 09:18:17;;;;;;;11.77;9.43;;;;;;;19.42;67.84;99073.06;5048736;27;103194;-65
2022/10/13 09:20:45;;;;;;;12.63;9.38;;;;;;;19.55;66.75;99060.91;5022665;27;103065;-63
2022/10/13 09:23:20;;;;;;;14.70;10.40;;;;;;;19.40;68.66;99064.31;5041464;27;102906;-63
2022/10/13 09:25:50;;;;;;;11.52;8.95;;;;;;;19.57;67.46;99063.44;5037342;27;103310;-63
2022/10/13 09:28:22;;;;;;;12.27;8.88;;;;;;;19.54;67.23;99063.75;5039423;27;103329;-63
2022/10/13 09:31:01;;;;;;;11.80;9.00;;;;;;;19.70;68.10;99063.00;5022412;27;102743;-63
2022/10/13 09:33:29;;;;;;;11.90;8.80;;;;;;;19.78;67.63;99065.72;5038597;27;103762;-63
2022/10/13 09:36:13;;;;;;;11.55;8.43;;;;;;;19.48;67.87;99061.72;5039538;27;103328;-63
2022/10/13 09:38:44;;;;;;;12.37;7.97;;;;;;;19.25;68.28;99060.53;5021255;27;103592;-63
2022/10/13 09:41:16;;;;;;;9.27;7.32;;;;;;;19.64;66.82;99059.13;5040225;27;103444;-63
2022/10/13 09:43:58;;;;;;;14.27;7.53;;;;;;;19.08;68.56;99063.09;5025128;27;103755;-63
2022/10/13 09:46:29;;;;;;;12.57;7.20;;;;;;;19.16;68.06;99064.13;5023226;27;104237;-63
2022/10/13 09:49:02;;;;;;;11.57;8.07;;;;;;;19.21;68.04;99062.66;5041936;27;103577;-63
2022/10/13 09:51:37;;;;;;;12.03;7.90;;;;;;;18.74;68.87;99070.16;5037487;27;102875;-63
2022/10/13 09:54:28;;;;;;;10.50;7.73;;;;;;;19.17;68.04;99069.34;5039589;27;102660;-62
2022/10/13 09:57:01;;;;;;;10.05;7.53;;;;;;;18.95;68.90;99062.63;5041576;27;103922;-63
2022/10/13 09:59:34;;;;;;;13.07;7.78;;;;;;;18.98;68.79;99056.13;5040246;27;103227;-64
2022/10/13 10:02:18;;;;;;;12.88;7.50;;;;;;;19.37;67.84;99043.22;5043630;27;102707;-64
2022/10/13 10:04:53;;;;;;;10.85;7.55;;;;;;;19.22;68.44;99052.81;5022190;27;104077;-63
2022/10/13 10:07:28;;;;;;;10.00;6.87;;;;;;;19.02;69.81;99054.84;5040607;27;104279;-63
2022/10/13 10:10:03;;;;;;;11.15;7.35;;;;;;;18.86;69.57;99047.50;5039691;27;103290;-63
2022/10/13 10:12:37;;;;;;;12.82;7.40;;;;;;;19.05;68.76;99054.53;5021473;27;102672;-64
2022/10/13 10:15:20;;;;;;;13.27;6.97;;;;;;;19.39;68.41;99049.28;5038168;27;103860;-65
2022/10/13 10:17:55;;;;;;;9.52;6.65;;;;;;;19.06;68.70;99051.69;5043337;27;105026;-65
2022/10/13 10:20:45;;;;;;;12.30;7.00;;;;;;;19.23;69.08;99058.00;5038926;27;103490;-67
2022/10/13 10:23:19;;;;;;;10.20;6.28;;;;;;;19.41;67.80;99057.97;5035940;27;102605;-65
2022/10/13 10:25:51;;;;;;;8.43;6.63;;;;;;;19.48;67.57;99048.31;5037584;27;102849;-65
2022/10/13 10:28:39;;;;;;;10.05;6.45;;;;;;;19.22;68.72;99052.81;5038075;27;103001;-65
2022/10/13 10:31:18;;;;;;;10.10;6.30;;;;;;;19.24;67.68;99056.16;5036965;27;103191;-65
2022/10/13 10:33:55;;;;;;;8.23;6.30;;;;;;;19.26;67.87;99044.28;5042400;27;102632;-65
2022/10/13 10:36:34;;;;;;;7.88;5.80;;;;;;;18.86;69.36;99044.81;5039330;27;102726;-65
2022/10/13 10:39:12;;;;;;;8.30;5.72;;;;;;;19.31;68.52;99049.19;5036255;27;104223;-65
2022/10/13 10:41:49;;;;;;;9.43;5.88;;;;;;;19.71;66.57;99038.72;5021127;27;103261;-65
2022/10/13 10:44:24;;;;;;;8.13;5.95;;;;;;;19.73;66.48;99042.09;5020128;27;103021;-65
2022/10/13 10:46:58;;;;;;;8.17;5.93;;;;;;;19.74;66.95;99040.22;5040422;27;106300;-65
2022/10/13 10:49:30;;;;;;;6.22;5.30;;;;;;;20.03;65.83;99032.66;5040392;27;103724;-65
2022/10/13 10:52:00;;;;;;;7.43;5.85;;;;;;;19.78;66.61;99029.03;5037046;27;103271;-65
2022/10/13 10:54:43;;;;;;;8.15;5.85;;;;;;;19.96;65.61;99027.09;5043416;27;102975;-65
2022/10/13 10:57:24;;;;;;;7.20;5.35;;;;;;;20.00;66.06;99017.72;5037636;27;103611;-65
2022/10/13 11:00:00;;;;;;;5.47;4.90;;;;;;;20.35;65.38;99005.13;5041437;27;103242;-65
2022/10/13 11:02:43;;;;;;;6.07;5.10;;;;;;;20.28;64.37;99010.28;5044607;27;103292;-65
2022/10/13 11:05:12;;;;;;;9.63;5.60;;;;;;;19.88;66.05;99008.31;5041818;27;102698;-67
2022/10/13 11:07:58;;;;;;;7.95;5.32;;;;;;;20.06;64.97;99005.53;5037073;27;103067;-65
2022/10/13 11:10:27;;;;;;;7.60;5.55;;;;;;;20.27;64.22;98997.06;5036571;27;104148;-65
2022/10/13 11:13:24;;;;;;;6.72;5.53;;;;;;;20.03;65.28;98995.97;5039449;27;103590;-65
2022/10/13 11:15:54;;;;;;;10.35;5.97;;;;;;;20.02;65.24;98996.94;5037370;27;103405;-65
2022/10/13 11:18:55;;;;;;;7.38;5.20;;;;;;;20.68;64.27;98990.72;5021434;27;104185;-65
2022/10/13 11:22:05;;;;;;;7.97;5.43;;;;;;;20.40;64.17;98975.94;5041392;27;104379;-65
2022/10/13 11:24:58;;;;;;;8.87;5.43;;;;;;;20.36;64.48;98975.44;5043104;27;103223;-65
2022/10/13 11:27:41;;;;;;;10.82;5.35;;;;;;;20.42;63.82;98974.75;5041842;27;102686;-65
2022/10/13 11:30:56;;;;;;;10.10;6.10;;;;;;;19.87;65.43;98978.97;5024531;27;104262;-65
2022/10/13 11:33:35;;;;;;;9.52;5.22;;;;;;;20.55;63.72;98974.25;4959234;28;103381;-65
2022/10/13 11:36:35;;;;;;;7.45;5.60;;;;;;;20.53;64.00;98965.53;5029828;27;104211;-65